sensor_id;sensor_type;location;lat;lon;timestamp;pressure;altitude;pressure_sealevel;temperature;humidity
66021;BME280;52789;59.980;30.346;2023-04-06T00:00:08;102846.19;;;2.28;100.00
66021;BME280;52789;59.980;30.346;2023-04-06T00:02:34;102845.06;;;2.35;100.00
66021;BME280;52789;59.980;30.346;2023-04-06T00:04:59;102839.69;;;2.38;100.00
66021;BME280;52789;59.980;30.346;2023-04-06T00:07:25;102839.69;;;2.38;100.00
66021;BME280;52789;59.980;30.346;2023-04-06T00:09:51;102838.88;;;2.36;100.00
66021;BME280;52789;59.980;30.346;2023-04-06T00:12:16;102839.09;;;2.30;100.00
66021;BME280;52789;59.980;30.346;2023-04-06T00:14:41;102842.03;;;2.22;100.00
66021;BME280;52789;59.980;30.346;2023-04-06T00:17:07;102834.44;;;2.14;100.00
66021;BME280;52789;59.980;30.346;2023-04-06T00:19:33;102836.25;;;2.12;100.00
66021;BME280;52789;59.980;30.346;2023-04-06T00:21:58;102844.16;;;2.12;100.00
66021;BME280;52789;59.980;30.346;2023-04-06T00:24:24;102846.91;;;2.09;100.00
66021;BME280;52789;59.980;30.346;2023-04-06T00:26:50;102847.13;;;2.03;100.00
66021;BME280;52789;59.980;30.346;2023-04-06T00:29:15;102841.88;;;2.03;100.00
66021;BME280;52789;59.980;30.346;2023-04-06T00:31:40;102840.09;;;2.04;100.00
66021;BME280;52789;59.980;30.346;2023-04-06T00:34:06;102833.06;;;2.04;100.00
66021;BME280;52789;59.980;30.346;2023-04-06T00:36:31;102836.56;;;2.05;100.00
66021;BME280;52789;59.980;30.346;2023-04-06T00:38:56;102837.47;;;2.04;100.00
66021;BME280;52789;59.980;30.346;2023-04-06T00:41:22;102835.78;;;2.01;100.00
66021;BME280;52789;59.980;30.346;2023-04-06T00:43:47;102836.75;;;1.99;100.00
66021;BME280;52789;59.980;30.346;2023-04-06T00:46:12;102829.84;;;1.96;100.00
66021;BME280;52789;59.980;30.346;2023-04-06T00:48:38;102830.03;;;1.92;100.00
66021;BME280;52789;59.980;30.346;2023-04-06T00:51:04;102826.66;;;1.88;100.00
66021;BME280;52789;59.980;30.346;2023-04-06T00:53:29;102828.47;;;1.86;100.00
66021;BME280;52789;59.980;30.346;2023-04-06T00:55:55;102830.19;;;1.87;100.00
66021;BME280;52789;59.980;30.346;2023-04-06T00:58:20;102832.59;;;1.93;100.00
66021;BME280;52789;59.980;30.346;2023-04-06T01:00:46;102833.28;;;1.98;100.00
66021;BME280;52789;59.980;30.346;2023-04-06T01:03:12;102831.56;;;1.97;100.00
66021;BME280;52789;59.980;30.346;2023-04-06T01:05:37;102841.38;;;1.92;100.00
66021;BME280;52789;59.980;30.346;2023-04-06T01:08:05;102837.16;;;1.88;100.00
66021;BME280;52789;59.980;30.346;2023-04-06T01:10:31;102839.91;;;1.85;100.00
66021;BME280;52789;59.980;30.346;2023-04-06T01:12:56;102839.78;;;1.88;100.00
66021;BME280;52789;59.980;30.346;2023-04-06T01:15:21;102837.91;;;1.92;100.00
66021;BME280;52789;59.980;30.346;2023-04-06T01:17:47;102844.03;;;1.92;100.00
66021;BME280;52789;59.980;30.346;2023-04-06T01:20:13;102846.66;;;1.92;100.00
66021;BME280;52789;59.980;30.346;2023-04-06T01:22:39;102845.63;;;1.96;100.00
66021;BME280;52789;59.980;30.346;2023-04-06T01:25:05;102850.56;;;2.05;100.00
66021;BME280;52789;59.980;30.346;2023-04-06T01:27:30;102853.19;;;2.05;100.00
66021;BME280;52789;59.980;30.346;2023-04-06T01:29:56;102843.66;;;2.01;100.00
66021;BME280;52789;59.980;30.346;2023-04-06T01:32:21;102850.75;;;1.99;100.00
66021;BME280;52789;59.980;30.346;2023-04-06T01:34:46;102850.88;;;1.96;100.00
66021;BME280;52789;59.980;30.346;2023-04-06T01:37:12;102840.03;;;1.82;100.00
66021;BME280;52789;59.980;30.346;2023-04-06T01:39:37;102852.06;;;1.88;100.00
66021;BME280;52789;59.980;30.346;2023-04-06T01:42:02;102854.75;;;1.86;100.00
66021;BME280;52789;59.980;30.346;2023-04-06T01:44:28;102849.38;;;1.89;100.00
66021;BME280;52789;59.980;30.346;2023-04-06T01:46:55;102852.75;;;1.93;100.00
66021;BME280;52789;59.980;30.346;2023-04-06T01:49:21;102856.19;;;1.95;100.00
66021;BME280;52789;59.980;30.346;2023-04-06T01:51:46;102855.16;;;1.99;100.00
66021;BME280;52789;59.980;30.346;2023-04-06T01:54:12;102856.78;;;2.03;100.00
66021;BME280;52789;59.980;30.346;2023-04-06T01:56:37;102864.50;;;2.07;100.00
66021;BME280;52789;59.980;30.346;2023-04-06T01:59:02;102859.91;;;2.12;100.00
66021;BME280;52789;59.980;30.346;2023-04-06T02:01:28;102866.22;;;2.08;100.00
66021;BME280;52789;59.980;30.346;2023-04-06T02:03:53;102861.06;;;2.05;100.00
66021;BME280;52789;59.980;30.346;2023-04-06T02:06:19;102862.97;;;2.00;100.00
66021;BME280;52789;59.980;30.346;2023-04-06T02:08:44;102855.22;;;1.97;100.00
66021;BME280;52789;59.980;30.346;2023-04-06T02:11:09;102858.59;;;2.01;100.00
66021;BME280;52789;59.980;30.346;2023-04-06T02:13:35;102862.97;;;2.00;100.00
66021;BME280;52789;59.980;30.346;2023-04-06T02:16:00;102865.56;;;2.02;100.00
66021;BME280;52789;59.980;30.346;2023-04-06T02:18:27;102861.97;;;2.04;100.00
66021;BME280;52789;59.980;30.346;2023-04-06T02:20:53;102854.97;;;2.05;100.00
66021;BME280;52789;59.980;30.346;2023-04-06T02:23:18;102861.88;;;2.07;100.00
66021;BME280;52789;59.980;30.346;2023-04-06T02:25:44;102859.00;;;2.13;100.00
66021;BME280;52789;59.980;30.346;2023-04-06T02:28:09;102865.19;;;2.12;100.00
66021;BME280;52789;59.980;30.346;2023-04-06T02:30:34;102862.66;;;2.09;100.00
66021;BME280;52789;59.980;30.346;2023-04-06T02:33:00;102866.41;;;2.02;100.00
66021;BME280;52789;59.980;30.346;2023-04-06T02:35:27;102870.06;;;1.98;100.00
66021;BME280;52789;59.980;30.346;2023-04-06T02:37:52;102871.78;;;1.99;100.00
66021;BME280;52789;59.980;30.346;2023-04-06T02:40:18;102867.28;;;2.03;100.00
66021;BME280;52789;59.980;30.346;2023-04-06T02:42:43;102874.94;;;2.09;100.00
66021;BME280;52789;59.980;30.346;2023-04-06T02:45:08;102877.34;;;2.15;100.00
66021;BME280;52789;59.980;30.346;2023-04-06T02:47:34;102884.31;;;2.16;100.00
66021;BME280;52789;59.980;30.346;2023-04-06T02:49:59;102878.94;;;2.19;100.00
66021;BME280;52789;59.980;30.346;2023-04-06T02:52:25;102886.88;;;2.17;100.00
66021;BME280;52789;59.980;30.346;2023-04-06T02:54:51;102885.53;;;2.07;100.00
66021;BME280;52789;59.980;30.346;2023-04-06T02:57:16;102883.06;;;2.03;100.00
66021;BME280;52789;59.980;30.346;2023-04-06T02:59:42;102882.22;;;2.01;100.00
66021;BME280;52789;59.980;30.346;2023-04-06T03:02:07;102880.53;;;2.00;100.00
66021;BME280;52789;59.980;30.346;2023-04-06T03:04:34;102883.91;;;2.03;100.00
66021;BME280;52789;59.980;30.346;2023-04-06T03:06:59;102890.66;;;2.10;100.00
66021;BME280;52789;59.980;30.346;2023-04-06T03:09:25;102881.97;;;2.08;100.00
66021;BME280;52789;59.980;30.346;2023-04-06T03:11:50;102879.47;;;2.05;100.00
66021;BME280;52789;59.980;30.346;2023-04-06T03:14:15;102890.19;;;1.99;100.00
66021;BME280;52789;59.980;30.346;2023-04-06T03:16:42;102879.59;;;2.01;100.00
66021;BME280;52789;59.980;30.346;2023-04-06T03:19:08;102884.84;;;2.01;100.00
66021;BME280;52789;59.980;30.346;2023-04-06T03:21:34;102885.03;;;1.96;100.00
66021;BME280;52789;59.980;30.346;2023-04-06T03:23:59;102887.53;;;1.99;100.00
66021;BME280;52789;59.980;30.346;2023-04-06T03:26:24;102885.72;;;2.01;100.00
66021;BME280;52789;59.980;30.346;2023-04-06T03:28:50;102886.56;;;2.03;100.00
66021;BME280;52789;59.980;30.346;2023-04-06T03:31:16;102888.25;;;2.04;100.00
66021;BME280;52789;59.980;30.346;2023-04-06T03:33:41;102893.78;;;1.97;100.00
66021;BME280;52789;59.980;30.346;2023-04-06T03:36:06;102892.22;;;1.91;100.00
66021;BME280;52789;59.980;30.346;2023-04-06T03:38:32;102897.44;;;1.93;100.00
66021;BME280;52789;59.980;30.346;2023-04-06T03:40:57;102899.78;;;2.00;100.00
66021;BME280;52789;59.980;30.346;2023-04-06T03:43:22;102897.88;;;2.05;100.00
66021;BME280;52789;59.980;30.346;2023-04-06T03:45:48;102902.25;;;2.05;100.00
66021;BME280;52789;59.980;30.346;2023-04-06T03:48:13;102905.75;;;2.05;100.00
66021;BME280;52789;59.980;30.346;2023-04-06T03:50:38;102902.47;;;1.99;100.00
66021;BME280;52789;59.980;30.346;2023-04-06T03:53:04;102905.16;;;1.97;100.00
66021;BME280;52789;59.980;30.346;2023-04-06T03:55:29;102909.59;;;1.95;100.00
66021;BME280;52789;59.980;30.346;2023-04-06T03:57:55;102912.34;;;1.92;100.00
66021;BME280;52789;59.980;30.346;2023-04-06T04:00:20;102912.44;;;1.89;100.00
66021;BME280;52789;59.980;30.346;2023-04-06T04:02:45;102910.84;;;1.85;100.00
66021;BME280;52789;59.980;30.346;2023-04-06T04:05:11;102917.22;;;1.78;100.00
66021;BME280;52789;59.980;30.346;2023-04-06T04:07:36;102902.28;;;1.80;100.00
66021;BME280;52789;59.980;30.346;2023-04-06T04:10:02;102910.09;;;1.81;100.00
66021;BME280;52789;59.980;30.346;2023-04-06T04:12:28;102907.19;;;1.89;100.00
66021;BME280;52789;59.980;30.346;2023-04-06T04:14:54;102914.84;;;1.95;100.00
66021;BME280;52789;59.980;30.346;2023-04-06T04:17:19;102912.44;;;1.89;100.00
66021;BME280;52789;59.980;30.346;2023-04-06T04:19:44;102919.41;;;1.90;100.00
66021;BME280;52789;59.980;30.346;2023-04-06T04:22:10;102917.47;;;1.95;100.00
66021;BME280;52789;59.980;30.346;2023-04-06T04:24:35;102924.44;;;1.96;100.00
66021;BME280;52789;59.980;30.346;2023-04-06T04:27:01;102932.44;;;1.93;100.00
66021;BME280;52789;59.980;30.346;2023-04-06T04:29:26;102925.38;;;1.95;100.00
66021;BME280;52789;59.980;30.346;2023-04-06T04:31:51;102927.75;;;2.03;100.00
66021;BME280;52789;59.980;30.346;2023-04-06T04:34:17;102930.31;;;2.04;100.00
66021;BME280;52789;59.980;30.346;2023-04-06T04:36:45;102933.88;;;2.02;100.00
66021;BME280;52789;59.980;30.346;2023-04-06T04:39:10;102933.03;;;2.01;100.00
66021;BME280;52789;59.980;30.346;2023-04-06T04:41:35;102933.81;;;2.05;100.00
66021;BME280;52789;59.980;30.346;2023-04-06T04:44:01;102932.94;;;2.04;100.00
66021;BME280;52789;59.980;30.346;2023-04-06T04:46:26;102933.94;;;2.00;100.00
66021;BME280;52789;59.980;30.346;2023-04-06T04:48:51;102929.72;;;1.96;100.00
66021;BME280;52789;59.980;30.346;2023-04-06T04:51:16;102934.38;;;1.88;100.00
66021;BME280;52789;59.980;30.346;2023-04-06T04:53:42;102937.00;;;1.88;100.00
66021;BME280;52789;59.980;30.346;2023-04-06T04:56:07;102930.94;;;1.86;100.00
66021;BME280;52789;59.980;30.346;2023-04-06T04:58:32;102935.06;;;1.93;100.00
66021;BME280;52789;59.980;30.346;2023-04-06T05:00:58;102934.22;;;1.93;100.00
66021;BME280;52789;59.980;30.346;2023-04-06T05:03:25;102936.97;;;1.90;100.00
66021;BME280;52789;59.980;30.346;2023-04-06T05:05:50;102937.66;;;1.95;100.00
66021;BME280;52789;59.980;30.346;2023-04-06T05:08:16;102941.25;;;1.92;100.00
66021;BME280;52789;59.980;30.346;2023-04-06T05:10:41;102948.50;;;1.85;100.00
66021;BME280;52789;59.980;30.346;2023-04-06T05:13:07;102938.19;;;1.79;100.00
66021;BME280;52789;59.980;30.346;2023-04-06T05:15:32;102942.38;;;1.85;100.00
66021;BME280;52789;59.980;30.346;2023-04-06T05:18:00;102949.00;;;1.95;100.00
66021;BME280;52789;59.980;30.346;2023-04-06T05:20:25;102942.69;;;2.01;100.00
66021;BME280;52789;59.980;30.346;2023-04-06T05:22:51;102943.22;;;2.10;100.00
66021;BME280;52789;59.980;30.346;2023-04-06T05:25:16;102948.38;;;2.13;100.00
66021;BME280;52789;59.980;30.346;2023-04-06T05:27:41;102947.56;;;2.11;100.00
66021;BME280;52789;59.980;30.346;2023-04-06T05:30:07;102950.09;;;2.14;100.00
66021;BME280;52789;59.980;30.346;2023-04-06T05:32:32;102951.06;;;2.12;100.00
66021;BME280;52789;59.980;30.346;2023-04-06T05:34:57;102951.88;;;2.14;100.00
66021;BME280;52789;59.980;30.346;2023-04-06T05:37:23;102951.97;;;2.11;100.00
66021;BME280;52789;59.980;30.346;2023-04-06T05:39:48;102954.50;;;2.14;100.00
66021;BME280;52789;59.980;30.346;2023-04-06T05:42:13;102952.88;;;2.10;100.00
66021;BME280;52789;59.980;30.346;2023-04-06T05:44:40;102949.63;;;2.03;100.00
66021;BME280;52789;59.980;30.346;2023-04-06T05:47:05;102948.78;;;2.01;100.00
66021;BME280;52789;59.980;30.346;2023-04-06T05:49:31;102950.63;;;1.99;100.00
66021;BME280;52789;59.980;30.346;2023-04-06T05:51:56;102954.28;;;1.95;100.00
66021;BME280;52789;59.980;30.346;2023-04-06T05:54:21;102950.72;;;1.96;100.00
66021;BME280;52789;59.980;30.346;2023-04-06T05:56:47;102950.72;;;1.96;100.00
66021;BME280;52789;59.980;30.346;2023-04-06T05:59:12;102946.16;;;2.01;100.00
66021;BME280;52789;59.980;30.346;2023-04-06T06:01:37;102949.28;;;2.12;100.00
66021;BME280;52789;59.980;30.346;2023-04-06T06:04:04;102955.88;;;2.24;100.00
66021;BME280;52789;59.980;30.346;2023-04-06T06:06:29;102947.34;;;2.17;100.00
66021;BME280;52789;59.980;30.346;2023-04-06T06:08:55;102950.88;;;2.16;100.00
66021;BME280;52789;59.980;30.346;2023-04-06T06:11:23;102957.63;;;2.24;100.00
66021;BME280;52789;59.980;30.346;2023-04-06T06:13:48;102958.56;;;2.23;100.00
66021;BME280;52789;59.980;30.346;2023-04-06T06:16:14;102958.84;;;2.15;100.00
66021;BME280;52789;59.980;30.346;2023-04-06T06:18:39;102967.69;;;2.12;100.00
66021;BME280;52789;59.980;30.346;2023-04-06T06:21:06;102963.34;;;2.11;100.00
66021;BME280;52789;59.980;30.346;2023-04-06T06:23:31;102961.00;;;2.04;100.00
66021;BME280;52789;59.980;30.346;2023-04-06T06:26:00;102965.19;;;2.09;100.00
66021;BME280;52789;59.980;30.346;2023-04-06T06:28:26;102970.25;;;2.14;100.00
66021;BME280;52789;59.980;30.346;2023-04-06T06:30:51;102966.72;;;2.15;100.00
66021;BME280;52789;59.980;30.346;2023-04-06T06:33:16;102974.31;;;2.23;100.00
66021;BME280;52789;59.980;30.346;2023-04-06T06:35:42;102971.75;;;2.21;100.00
66021;BME280;52789;59.980;30.346;2023-04-06T06:38:07;102964.63;;;2.25;100.00
66021;BME280;52789;59.980;30.346;2023-04-06T06:40:33;102974.22;;;2.26;100.00
66021;BME280;52789;59.980;30.346;2023-04-06T06:42:58;102972.84;;;2.15;100.00
66021;BME280;52789;59.980;30.346;2023-04-06T06:45:23;102969.97;;;2.22;100.00
66021;BME280;52789;59.980;30.346;2023-04-06T06:47:50;102970.56;;;2.30;100.00
66021;BME280;52789;59.980;30.346;2023-04-06T06:50:15;102969.84;;;2.49;100.00
66021;BME280;52789;59.980;30.346;2023-04-06T06:52:41;102967.94;;;2.53;100.00
66021;BME280;52789;59.980;30.346;2023-04-06T06:55:07;102974.59;;;2.63;100.00
66021;BME280;52789;59.980;30.346;2023-04-06T06:57:33;102975.22;;;2.70;100.00
66021;BME280;52789;59.980;30.346;2023-04-06T06:59:58;102978.47;;;2.76;100.00
66021;BME280;52789;59.980;30.346;2023-04-06T07:02:25;102982.16;;;2.72;100.00
66021;BME280;52789;59.980;30.346;2023-04-06T07:04:50;102979.16;;;2.82;100.00
66021;BME280;52789;59.980;30.346;2023-04-06T07:07:15;102968.97;;;2.96;100.00
66021;BME280;52789;59.980;30.346;2023-04-06T07:09:41;102974.78;;;3.04;100.00
66021;BME280;52789;59.980;30.346;2023-04-06T07:12:06;102984.09;;;3.13;100.00
66021;BME280;52789;59.980;30.346;2023-04-06T07:14:32;102979.75;;;3.11;100.00
66021;BME280;52789;59.980;30.346;2023-04-06T07:16:57;102980.66;;;3.10;100.00
66021;BME280;52789;59.980;30.346;2023-04-06T07:19:22;102975.47;;;3.09;100.00
66021;BME280;52789;59.980;30.346;2023-04-06T07:21:48;102977.47;;;3.02;100.00
66021;BME280;52789;59.980;30.346;2023-04-06T07:24:15;102983.38;;;2.86;100.00
66021;BME280;52789;59.980;30.346;2023-04-06T07:26:41;102971.72;;;2.93;100.00
66021;BME280;52789;59.980;30.346;2023-04-06T07:29:06;102980.53;;;2.92;100.00
66021;BME280;52789;59.980;30.346;2023-04-06T07:31:32;102986.22;;;3.03;100.00
66021;BME280;52789;59.980;30.346;2023-04-06T07:33:57;102984.72;;;3.19;100.00
66021;BME280;52789;59.980;30.346;2023-04-06T07:36:22;102984.59;;;3.22;100.00
66021;BME280;52789;59.980;30.346;2023-04-06T07:38:48;102981.25;;;3.17;100.00
66021;BME280;52789;59.980;30.346;2023-04-06T07:41:14;102986.72;;;3.34;100.00
66021;BME280;52789;59.980;30.346;2023-04-06T07:43:39;102994.25;;;3.43;100.00
66021;BME280;52789;59.980;30.346;2023-04-06T07:46:05;102993.28;;;3.46;100.00
66021;BME280;52789;59.980;30.346;2023-04-06T07:48:31;102997.69;;;3.46;100.00
66021;BME280;52789;59.980;30.346;2023-04-06T07:51:02;102996.88;;;3.43;100.00
66021;BME280;52789;59.980;30.346;2023-04-06T07:53:29;103000.88;;;3.54;100.00
66021;BME280;52789;59.980;30.346;2023-04-06T07:55:54;102998.25;;;3.74;100.00
66021;BME280;52789;59.980;30.346;2023-04-06T07:58:20;102998.97;;;3.79;100.00
66021;BME280;52789;59.980;30.346;2023-04-06T08:00:46;102998.81;;;3.82;100.00
66021;BME280;52789;59.980;30.346;2023-04-06T08:03:17;102993.41;;;3.85;100.00
66021;BME280;52789;59.980;30.346;2023-04-06T08:05:48;103002.63;;;3.75;100.00
66021;BME280;52789;59.980;30.346;2023-04-06T08:08:13;102998.16;;;3.77;100.00
66021;BME280;52789;59.980;30.346;2023-04-06T08:10:38;103000.38;;;3.66;100.00
66021;BME280;52789;59.980;30.346;2023-04-06T08:13:04;103002.84;;;3.49;100.00
66021;BME280;52789;59.980;30.346;2023-04-06T08:15:29;103003.72;;;3.49;100.00
66021;BME280;52789;59.980;30.346;2023-04-06T08:17:55;103002.22;;;3.42;100.00
66021;BME280;52789;59.980;30.346;2023-04-06T08:20:22;103003.81;;;3.46;100.00
66021;BME280;52789;59.980;30.346;2023-04-06T08:22:47;103001.88;;;3.51;100.00
66021;BME280;52789;59.980;30.346;2023-04-06T08:25:13;103009.44;;;3.59;100.00
66021;BME280;52789;59.980;30.346;2023-04-06T08:27:38;103006.75;;;3.60;100.00
66021;BME280;52789;59.980;30.346;2023-04-06T08:30:04;103007.59;;;3.61;100.00
66021;BME280;52789;59.980;30.346;2023-04-06T08:32:29;103014.34;;;3.68;100.00
66021;BME280;52789;59.980;30.346;2023-04-06T08:34:55;103016.34;;;3.83;100.00
66021;BME280;52789;59.980;30.346;2023-04-06T08:37:21;103021.50;;;3.86;100.00
66021;BME280;52789;59.980;30.346;2023-04-06T08:39:46;103018.91;;;3.85;100.00
66021;BME280;52789;59.980;30.346;2023-04-06T08:42:16;103020.16;;;3.76;100.00
66021;BME280;52789;59.980;30.346;2023-04-06T08:44:44;103022.75;;;3.78;100.00
66021;BME280;52789;59.980;30.346;2023-04-06T08:47:11;103017.13;;;3.85;100.00
66021;BME280;52789;59.980;30.346;2023-04-06T08:49:37;103014.25;;;3.91;100.00
66021;BME280;52789;59.980;30.346;2023-04-06T08:52:02;103019.25;;;3.97;100.00
66021;BME280;52789;59.980;30.346;2023-04-06T08:54:30;103018.06;;;4.04;100.00
66021;BME280;52789;59.980;30.346;2023-04-06T08:56:55;103023.94;;;4.11;99.63
66021;BME280;52789;59.980;30.346;2023-04-06T08:59:23;103023.84;;;4.33;100.00
66021;BME280;52789;59.980;30.346;2023-04-06T09:01:48;103023.34;;;4.45;99.45
66021;BME280;52789;59.980;30.346;2023-04-06T09:04:15;103021.28;;;4.52;99.43
66021;BME280;52789;59.980;30.346;2023-04-06T09:06:41;103029.53;;;4.64;99.58
66021;BME280;52789;59.980;30.346;2023-04-06T09:09:06;103034.38;;;4.74;97.51
66021;BME280;52789;59.980;30.346;2023-04-06T09:11:42;103037.50;;;4.63;97.34
66021;BME280;52789;59.980;30.346;2023-04-06T09:14:07;103039.09;;;4.47;98.06
66021;BME280;52789;59.980;30.346;2023-04-06T09:16:38;103037.19;;;4.30;98.89
66021;BME280;52789;59.980;30.346;2023-04-06T09:19:04;103033.44;;;4.15;100.00
66021;BME280;52789;59.980;30.346;2023-04-06T09:21:30;103027.84;;;4.23;99.83
66021;BME280;52789;59.980;30.346;2023-04-06T09:23:59;103027.56;;;4.29;99.31
66021;BME280;52789;59.980;30.346;2023-04-06T09:26:25;103029.03;;;4.36;99.16
66021;BME280;52789;59.980;30.346;2023-04-06T09:28:55;103033.97;;;4.44;99.54
66021;BME280;52789;59.980;30.346;2023-04-06T09:31:30;103035.72;;;4.63;99.17
66021;BME280;52789;59.980;30.346;2023-04-06T09:33:58;103035.44;;;4.70;98.43
66021;BME280;52789;59.980;30.346;2023-04-06T09:36:34;103027.88;;;4.81;98.24
66021;BME280;52789;59.980;30.346;2023-04-06T09:39:03;103033.59;;;5.09;99.05
66021;BME280;52789;59.980;30.346;2023-04-06T09:41:29;103033.09;;;5.20;95.26
66021;BME280;52789;59.980;30.346;2023-04-06T09:44:05;103028.53;;;5.05;95.44
66021;BME280;52789;59.980;30.346;2023-04-06T09:46:32;103023.25;;;4.86;95.89
66021;BME280;52789;59.980;30.346;2023-04-06T09:48:59;103023.66;;;4.77;96.76
66021;BME280;52789;59.980;30.346;2023-04-06T09:51:25;103026.81;;;4.85;97.00
66021;BME280;52789;59.980;30.346;2023-04-06T09:53:52;103021.81;;;4.79;96.47
66021;BME280;52789;59.980;30.346;2023-04-06T09:56:20;103035.44;;;4.70;97.59
66021;BME280;52789;59.980;30.346;2023-04-06T09:58:49;103028.59;;;4.65;96.99
66021;BME280;52789;59.980;30.346;2023-04-06T10:01:15;103022.31;;;4.87;97.08
66021;BME280;52789;59.980;30.346;2023-04-06T10:06:10;103027.84;;;5.01;96.61
66021;BME280;52789;59.980;30.346;2023-04-06T10:08:36;103029.75;;;5.16;95.50
66021;BME280;52789;59.980;30.346;2023-04-06T10:11:05;103014.56;;;5.21;94.41
66021;BME280;52789;59.980;30.346;2023-04-06T10:13:31;103019.16;;;5.16;94.25
66021;BME280;52789;59.980;30.346;2023-04-06T10:15:56;103026.38;;;5.32;94.75
66021;BME280;52789;59.980;30.346;2023-04-06T10:18:22;103023.72;;;5.50;93.64
66021;BME280;52789;59.980;30.346;2023-04-06T10:23:52;103027.91;;;5.90;91.32
66021;BME280;52789;59.980;30.346;2023-04-06T10:26:20;103020.38;;;6.17;92.69
66021;BME280;52789;59.980;30.346;2023-04-06T10:28:46;103019.63;;;6.48;92.54
66021;BME280;52789;59.980;30.346;2023-04-06T10:31:11;103022.09;;;6.51;88.66
66021;BME280;52789;59.980;30.346;2023-04-06T10:33:37;103027.66;;;6.30;89.39
66021;BME280;52789;59.980;30.346;2023-04-06T10:36:09;103025.91;;;6.13;88.90
66021;BME280;52789;59.980;30.346;2023-04-06T10:38:35;103025.97;;;5.94;91.03
66021;BME280;52789;59.980;30.346;2023-04-06T10:41:05;103021.72;;;5.73;92.16
66021;BME280;52789;59.980;30.346;2023-04-06T10:43:35;103019.69;;;5.60;92.67
66021;BME280;52789;59.980;30.346;2023-04-06T10:46:01;103029.63;;;5.55;92.75
66021;BME280;52789;59.980;30.346;2023-04-06T10:48:40;103018.78;;;5.43;92.92
66021;BME280;52789;59.980;30.346;2023-04-06T10:51:15;103028.28;;;5.47;93.75
66021;BME280;52789;59.980;30.346;2023-04-06T10:53:42;103020.50;;;5.44;94.11
66021;BME280;52789;59.980;30.346;2023-04-06T10:56:09;103028.78;;;5.55;93.45
66021;BME280;52789;59.980;30.346;2023-04-06T10:58:36;103024.28;;;5.74;93.18
66021;BME280;52789;59.980;30.346;2023-04-06T11:01:01;103018.13;;;5.74;92.49
66021;BME280;52789;59.980;30.346;2023-04-06T11:03:28;103016.16;;;5.79;92.74
66021;BME280;52789;59.980;30.346;2023-04-06T11:05:54;103009.41;;;5.90;93.06
66021;BME280;52789;59.980;30.346;2023-04-06T11:08:32;103010.63;;;6.01;92.63
66021;BME280;52789;59.980;30.346;2023-04-06T11:11:04;103009.09;;;5.97;92.10
66021;BME280;52789;59.980;30.346;2023-04-06T11:13:41;103007.06;;;6.02;92.75
66021;BME280;52789;59.980;30.346;2023-04-06T11:16:06;103006.44;;;6.14;92.38
66021;BME280;52789;59.980;30.346;2023-04-06T11:18:32;103001.00;;;6.17;91.46
66021;BME280;52789;59.980;30.346;2023-04-06T11:20:57;103002.47;;;6.05;90.88
66021;BME280;52789;59.980;30.346;2023-04-06T11:23:23;103002.25;;;6.10;91.71
66021;BME280;52789;59.980;30.346;2023-04-06T11:25:50;102993.50;;;6.25;91.63
66021;BME280;52789;59.980;30.346;2023-04-06T11:28:15;102990.22;;;6.37;91.14
66021;BME280;52789;59.980;30.346;2023-04-06T11:30:41;102994.94;;;6.48;89.82
66021;BME280;52789;59.980;30.346;2023-04-06T11:33:06;102982.16;;;6.56;89.43
66021;BME280;52789;59.980;30.346;2023-04-06T11:35:31;102986.03;;;6.66;88.93
66021;BME280;52789;59.980;30.346;2023-04-06T11:37:57;102985.94;;;6.68;88.04
66021;BME280;52789;59.980;30.346;2023-04-06T11:40:23;103001.66;;;6.71;88.04
66021;BME280;52789;59.980;30.346;2023-04-06T11:42:53;102986.13;;;6.80;88.85
66021;BME280;52789;59.980;30.346;2023-04-06T11:45:19;102988.94;;;6.77;88.72
66021;BME280;52789;59.980;30.346;2023-04-06T11:47:44;102994.91;;;6.81;88.38
66021;BME280;52789;59.980;30.346;2023-04-06T11:50:10;102980.72;;;6.82;87.78
66021;BME280;52789;59.980;30.346;2023-04-06T11:52:36;102983.38;;;6.82;87.78
66021;BME280;52789;59.980;30.346;2023-04-06T11:55:16;102986.97;;;6.81;88.34
66021;BME280;52789;59.980;30.346;2023-04-06T11:57:44;102990.03;;;6.89;87.91
66021;BME280;52789;59.980;30.346;2023-04-06T12:00:10;102990.56;;;6.80;86.44
66021;BME280;52789;59.980;30.346;2023-04-06T12:02:39;102986.47;;;6.74;87.03
66021;BME280;52789;59.980;30.346;2023-04-06T12:05:08;102983.56;;;6.79;86.66
66021;BME280;52789;59.980;30.346;2023-04-06T12:07:33;102976.53;;;6.78;85.98
66021;BME280;52789;59.980;30.346;2023-04-06T12:10:00;102991.75;;;6.90;86.11
66021;BME280;52789;59.980;30.346;2023-04-06T12:12:26;102996.03;;;6.93;85.51
66021;BME280;52789;59.980;30.346;2023-04-06T12:14:51;102992.69;;;6.89;85.00
66021;BME280;52789;59.980;30.346;2023-04-06T12:17:17;102992.69;;;6.89;84.73
66021;BME280;52789;59.980;30.346;2023-04-06T12:19:43;102986.63;;;6.87;84.59
66021;BME280;52789;59.980;30.346;2023-04-06T12:22:08;102983.50;;;6.96;85.02
66021;BME280;52789;59.980;30.346;2023-04-06T12:24:33;102978.44;;;7.07;83.91
66021;BME280;52789;59.980;30.346;2023-04-06T12:26:59;102971.84;;;7.14;83.99
66021;BME280;52789;59.980;30.346;2023-04-06T12:29:24;102968.84;;;7.21;83.82
66021;BME280;52789;59.980;30.346;2023-04-06T12:31:49;102974.84;;;7.24;81.67
66021;BME280;52789;59.980;30.346;2023-04-06T12:34:16;102979.63;;;7.18;81.28
66021;BME280;52789;59.980;30.346;2023-04-06T12:36:44;102977.66;;;7.21;81.81
66021;BME280;52789;59.980;30.346;2023-04-06T12:39:10;102976.22;;;7.15;80.15
66021;BME280;52789;59.980;30.346;2023-04-06T12:41:36;102974.50;;;7.14;79.89